Perch, North Carolina
Current Conditions -  °F | °C
As of 12:15 PM on Thursday 23 Oct 2014 (Local Time) from KMWK Reporting Station
Clear Clear  
Wind Chill: 60°   Ceiling: Unl
Heat Index: 60°   Visibility: 10mi
Dew Point: 41°   Wind: 10mph
Humidity: 49%   Direction: 350°N
Pressure: 30.09"   Gusts: 20mph
Location:  36.3244°N, 80.463°W
Report Text: KMWK 231615Z AUTO 35009G17KT 330V030 10SM CLR 16/05 A3009 RMK AO2 T01550049
Loading
Personal Weather Stations






























Interactive Weather Map
Tropical Storm Tracking
New forecast layout! Learn more

10-Day Weather Forecast

Advertisements
Track Severe Weather on mobile